createdAt,value
2022-09-13T00:00:23.795Z,17.60
2022-09-13T00:02:52.302Z,17.60
2022-09-13T00:05:21.569Z,17.71
2022-09-13T00:07:50.300Z,17.67
2022-09-13T00:10:19.621Z,17.60
2022-09-13T00:12:50.763Z,17.60
2022-09-13T00:15:20.799Z,17.55
2022-09-13T00:17:49.362Z,17.55
2022-09-13T00:20:18.878Z,17.49
2022-09-13T00:22:49.963Z,17.55
2022-09-13T00:25:20.086Z,17.47
2022-09-13T00:27:48.417Z,17.43
2022-09-13T00:30:19.005Z,17.35
2022-09-13T00:32:47.117Z,17.35
2022-09-13T00:35:16.570Z,17.47
2022-09-13T00:37:44.732Z,17.44
2022-09-13T00:40:14.102Z,17.41
2022-09-13T00:42:42.466Z,17.44
2022-09-13T00:45:22.383Z,17.23
2022-09-13T00:47:54.708Z,17.18
2022-09-13T00:50:28.561Z,17.22
2022-09-13T00:53:00.645Z,17.31
2022-09-13T00:55:33.715Z,17.24
2022-09-13T00:58:06.050Z,17.08
2022-09-13T01:00:37.735Z,17.15
2022-09-13T01:03:08.926Z,17.12
2022-09-13T01:05:40.215Z,17.21
2022-09-13T01:08:12.854Z,17.13
2022-09-13T01:10:42.206Z,17.11
2022-09-13T01:13:15.122Z,17.11
2022-09-13T01:15:49.260Z,16.89
2022-09-13T01:18:17.736Z,16.86
2022-09-13T01:21:10.717Z,16.97
2022-09-13T01:23:57.654Z,16.89
2022-09-13T01:27:13.725Z,16.74
2022-09-13T01:30:12.655Z,16.72
2022-09-13T01:32:56.298Z,16.81
2022-09-13T01:35:29.677Z,16.60
2022-09-13T01:38:03.175Z,16.59
2022-09-13T01:40:44.110Z,16.64
2022-09-13T01:43:24.716Z,16.50
2022-09-13T01:46:00.681Z,16.58
2022-09-13T01:48:38.238Z,16.60
2022-09-13T01:51:08.647Z,16.42
2022-09-13T01:53:51.686Z,16.30
2022-09-13T01:56:24.556Z,16.34
2022-09-13T01:58:56.563Z,16.36
2022-09-13T02:01:31.572Z,16.42
2022-09-13T02:04:03.168Z,16.47
2022-09-13T02:06:34.827Z,16.44
2022-09-13T02:09:05.162Z,16.41
2022-09-13T02:11:35.113Z,16.34
2022-09-13T02:14:08.173Z,16.20
2022-09-13T02:16:41.489Z,16.22
2022-09-13T02:19:15.536Z,16.16
2022-09-13T02:21:47.948Z,16.01
2022-09-13T02:24:18.098Z,16.12
2022-09-13T02:26:49.202Z,16.07
2022-09-13T02:29:19.963Z,16.03
2022-09-13T02:31:52.635Z,16.02
2022-09-13T02:34:23.883Z,15.92
2022-09-13T02:36:54.958Z,15.96
2022-09-13T02:39:25.965Z,15.93
2022-09-13T02:41:57.985Z,15.92
2022-09-13T02:44:31.833Z,15.82
2022-09-13T02:47:13.353Z,15.94
2022-09-13T02:49:51.625Z,15.70
2022-09-13T02:52:25.441Z,15.75
2022-09-13T02:54:58.788Z,15.83
2022-09-13T02:57:31.439Z,15.93
2022-09-13T03:00:01.391Z,15.94
2022-09-13T03:02:34.231Z,16.06
2022-09-13T03:05:04.176Z,16.01
2022-09-13T03:07:32.411Z,15.84
2022-09-13T03:10:05.964Z,15.89
2022-09-13T03:12:54.923Z,16.07
2022-09-13T03:15:31.620Z,15.89
2022-09-13T03:18:08.911Z,15.81
2022-09-13T03:20:42.051Z,15.82
2022-09-13T03:23:29.081Z,15.87
2022-09-13T03:26:09.490Z,15.88
2022-09-13T03:28:48.334Z,15.82
2022-09-13T03:31:21.547Z,15.88
2022-09-13T03:33:58.788Z,15.79
2022-09-13T03:36:34.179Z,15.95
2022-09-13T03:39:14.920Z,15.62
2022-09-13T03:41:46.725Z,15.77
2022-09-13T03:44:18.421Z,15.87
2022-09-13T03:46:49.032Z,15.97
2022-09-13T03:49:20.696Z,15.70
2022-09-13T03:51:51.403Z,15.78
2022-09-13T03:54:22.793Z,15.62
2022-09-13T03:57:13.022Z,15.73
2022-09-13T03:59:44.974Z,15.61
2022-09-13T04:02:13.778Z,15.63
2022-09-13T04:04:47.978Z,15.56
2022-09-13T04:07:18.754Z,15.50
2022-09-13T04:09:49.839Z,15.62
2022-09-13T04:12:19.611Z,15.76
2022-09-13T04:14:47.903Z,15.73
2022-09-13T04:17:16.875Z,15.62
2022-09-13T04:19:50.071Z,15.68
2022-09-13T04:22:18.860Z,15.39
2022-09-13T04:24:46.966Z,15.57
2022-09-13T04:27:16.423Z,15.44
2022-09-13T04:29:47.228Z,15.43
2022-09-13T04:32:16.624Z,15.41
2022-09-13T04:34:50.572Z,15.32
2022-09-13T04:37:21.250Z,15.37
2022-09-13T04:39:49.658Z,15.52
2022-09-13T04:42:19.623Z,15.37
2022-09-13T04:44:50.370Z,15.49
2022-09-13T04:47:19.210Z,15.25
2022-09-13T04:49:50.900Z,15.25
2022-09-13T04:52:20.048Z,15.33
2022-09-13T04:54:48.906Z,15.36
2022-09-13T04:57:17.973Z,15.25
2022-09-13T04:59:49.792Z,15.33
2022-09-13T05:02:18.791Z,15.35
2022-09-13T05:04:48.384Z,15.38
2022-09-13T05:07:17.685Z,15.19
2022-09-13T05:09:50.096Z,15.14
2022-09-13T05:12:19.059Z,15.55
2022-09-13T05:14:49.549Z,15.51
2022-09-13T05:17:17.780Z,15.50
2022-09-13T05:19:52.882Z,15.46
2022-09-13T05:22:22.027Z,15.42
2022-09-13T05:24:50.405Z,15.51
2022-09-13T05:27:18.888Z,15.62
2022-09-13T05:29:47.406Z,15.53
2022-09-13T05:32:16.199Z,15.61
2022-09-13T05:34:48.477Z,15.53
2022-09-13T05:37:18.395Z,15.58
2022-09-13T05:40:10.216Z,15.72
2022-09-13T05:42:37.069Z,15.57
2022-09-13T05:45:07.757Z,15.79
2022-09-13T05:47:35.912Z,15.81
2022-09-13T05:50:19.155Z,15.97
2022-09-13T05:52:54.833Z,15.80
2022-09-13T05:55:25.228Z,16.03
2022-09-13T05:57:53.955Z,16.03
2022-09-13T06:00:23.551Z,16.03
2022-09-13T06:02:51.940Z,16.04
2022-09-13T06:05:21.452Z,16.05
2022-09-13T06:07:49.931Z,16.09
2022-09-13T06:10:25.587Z,16.00
2022-09-13T06:12:58.977Z,16.24
2022-09-13T06:15:28.571Z,16.26
2022-09-13T06:17:57.269Z,16.34
2022-09-13T06:20:29.152Z,16.41
2022-09-13T06:22:58.639Z,16.22
2022-09-13T06:25:28.516Z,16.46
2022-09-13T06:28:00.363Z,16.44
2022-09-13T06:30:29.081Z,16.56
2022-09-13T06:32:58.933Z,16.49
2022-09-13T06:35:28.602Z,16.57
2022-09-13T06:37:59.057Z,16.47
2022-09-13T06:40:29.442Z,16.60
2022-09-13T06:42:59.004Z,16.68
2022-09-13T06:45:27.861Z,16.79
2022-09-13T06:47:57.512Z,16.72
2022-09-13T06:50:26.079Z,16.86
2022-09-13T06:52:54.915Z,17.02
2022-09-13T06:55:25.200Z,16.85
2022-09-13T06:57:55.228Z,16.93
2022-09-13T07:00:24.468Z,16.96
2022-09-13T07:02:53.317Z,17.07
2022-09-13T07:05:23.353Z,17.18
2022-09-13T07:07:51.982Z,17.21
2022-09-13T07:10:21.501Z,17.32
2022-09-13T07:12:49.957Z,17.29
2022-09-13T07:15:20.604Z,17.27
2022-09-13T07:17:49.167Z,17.20
2022-09-13T07:20:19.076Z,17.44
2022-09-13T07:22:49.831Z,17.39
2022-09-13T07:25:19.038Z,17.58
2022-09-13T07:27:49.937Z,17.51
2022-09-13T07:30:20.724Z,17.68
2022-09-13T07:32:48.932Z,17.77
2022-09-13T07:35:18.310Z,17.80
2022-09-13T07:37:47.258Z,17.72
2022-09-13T07:40:16.803Z,17.89
2022-09-13T07:42:48.087Z,17.81
2022-09-13T07:45:18.109Z,17.76
2022-09-13T07:47:53.762Z,17.72
2022-09-13T07:50:23.083Z,17.99
2022-09-13T07:52:52.717Z,18.04
2022-09-13T07:55:22.216Z,18.08
2022-09-13T07:57:51.190Z,18.20
2022-09-13T08:00:21.040Z,18.35
2022-09-13T08:02:51.499Z,18.45
2022-09-13T08:05:21.221Z,18.44
2022-09-13T08:07:50.200Z,18.53
2022-09-13T08:10:20.030Z,18.51
2022-09-13T08:12:49.926Z,18.77
2022-09-13T08:15:19.439Z,18.69
2022-09-13T08:17:50.681Z,18.83
2022-09-13T08:20:21.462Z,18.89
2022-09-13T08:22:50.129Z,18.87
2022-09-13T08:25:19.320Z,18.87
2022-09-13T08:27:50.140Z,19.01
2022-09-13T08:30:19.401Z,18.91
2022-09-13T08:32:51.640Z,19.02
2022-09-13T08:35:21.559Z,18.98
2022-09-13T08:37:51.027Z,19.25
2022-09-13T08:40:20.239Z,19.20
2022-09-13T08:42:53.207Z,19.13
2022-09-13T08:45:23.326Z,19.03
2022-09-13T08:47:55.817Z,19.30
2022-09-13T08:50:28.974Z,19.32
2022-09-13T08:53:06.277Z,19.63
2022-09-13T08:55:51.504Z,19.45
2022-09-13T08:58:45.380Z,19.63
2022-09-13T09:01:22.096Z,19.69
2022-09-13T09:03:56.854Z,19.68
2022-09-13T09:06:26.890Z,19.80
2022-09-13T09:09:00.144Z,19.66
2022-09-13T09:11:37.665Z,19.66
2022-09-13T09:14:10.374Z,19.71
2022-09-13T09:16:42.649Z,19.78
2022-09-13T09:19:20.414Z,20.06
2022-09-13T09:21:52.677Z,20.05
2022-09-13T09:24:23.753Z,20.21
2022-09-13T09:26:54.683Z,20.34
2022-09-13T09:29:25.731Z,20.50
2022-09-13T09:32:03.601Z,20.61
2022-09-13T09:34:45.909Z,20.35
2022-09-13T09:37:22.298Z,20.41
2022-09-13T09:39:51.829Z,20.45
2022-09-13T09:42:22.744Z,20.46
2022-09-13T09:44:53.058Z,20.50
2022-09-13T09:47:28.548Z,20.81
2022-09-13T09:50:10.941Z,20.86
2022-09-13T09:52:45.220Z,20.90
2022-09-13T09:55:27.158Z,20.80
2022-09-13T09:57:59.030Z,20.92
2022-09-13T10:00:31.404Z,21.23
2022-09-13T10:03:02.564Z,21.00
2022-09-13T10:05:35.119Z,21.08
2022-09-13T10:08:07.117Z,20.81
2022-09-13T10:10:42.935Z,20.98
2022-09-13T10:13:17.340Z,21.27
2022-09-13T10:15:58.197Z,21.25
2022-09-13T10:18:45.335Z,21.34
2022-09-13T10:21:24.694Z,21.48
2022-09-13T10:24:17.862Z,21.51
2022-09-13T10:26:47.555Z,21.60
2022-09-13T10:29:17.739Z,21.63
2022-09-13T10:31:50.298Z,21.66
2022-09-13T10:34:21.878Z,21.84
2022-09-13T10:36:56.136Z,21.94
2022-09-13T10:39:26.964Z,21.74
2022-09-13T10:41:58.423Z,21.74
2022-09-13T10:44:31.289Z,21.74
2022-09-13T10:47:04.702Z,21.94
2022-09-13T10:49:37.800Z,21.90
2022-09-13T10:52:29.634Z,21.97
2022-09-13T10:55:33.636Z,21.91
2022-09-13T10:58:18.833Z,22.14
2022-09-13T11:01:15.465Z,22.05
2022-09-13T11:04:14.852Z,22.28
2022-09-13T11:06:46.321Z,22.29
2022-09-13T11:09:18.185Z,22.53
2022-09-13T11:11:58.731Z,22.87
2022-09-13T11:14:38.561Z,22.73
2022-09-13T11:17:17.080Z,22.93
2022-09-13T11:20:00.108Z,23.11
2022-09-13T11:22:37.924Z,23.17
2022-09-13T11:25:17.433Z,23.22
2022-09-13T11:27:53.249Z,23.27
2022-09-13T11:30:29.173Z,23.59
2022-09-13T11:33:25.911Z,23.63
2022-09-13T11:36:10.961Z,23.74
2022-09-13T11:38:51.567Z,23.71
2022-09-13T11:41:29.534Z,23.71
2022-09-13T11:44:18.453Z,23.43
2022-09-13T11:46:53.149Z,23.62
2022-09-13T11:49:32.873Z,23.84
2022-09-13T11:52:10.662Z,24.12
2022-09-13T11:54:56.161Z,24.24
2022-09-13T11:57:28.385Z,24.28
2022-09-13T12:00:02.100Z,24.36
2022-09-13T12:02:39.335Z,24.36
2022-09-13T12:05:22.562Z,24.31
2022-09-13T12:07:54.818Z,24.63
2022-09-13T12:10:26.581Z,24.68
2022-09-13T12:12:56.895Z,24.74
2022-09-13T12:15:37.133Z,24.54
2022-09-13T12:18:12.051Z,24.49
2022-09-13T12:20:45.029Z,24.54
2022-09-13T12:23:16.823Z,24.46
2022-09-13T12:25:50.666Z,24.42
2022-09-13T12:28:24.791Z,24.40
2022-09-13T12:30:58.649Z,24.56
2022-09-13T12:33:27.760Z,24.29
2022-09-13T12:36:12.306Z,24.54
2022-09-13T12:39:06.384Z,24.24
2022-09-13T12:41:48.863Z,24.73
2022-09-13T12:44:34.087Z,24.35
2022-09-13T12:47:24.076Z,24.32
2022-09-13T12:50:40.111Z,24.30
2022-09-13T12:53:08.443Z,24.56
2022-09-13T12:55:59.167Z,24.97
2022-09-13T12:58:51.407Z,25.23
2022-09-13T13:01:22.306Z,25.44
2022-09-13T13:03:55.616Z,25.28
2022-09-13T13:06:31.032Z,25.55
2022-09-13T13:09:03.648Z,25.68
2022-09-13T13:11:44.680Z,26.00
2022-09-13T13:14:48.397Z,25.90
2022-09-13T13:17:45.784Z,25.57
2022-09-13T13:20:46.130Z,25.77
2022-09-13T13:23:27.227Z,26.04
2022-09-13T13:26:13.955Z,25.95
2022-09-13T13:29:09.804Z,25.77
2022-09-13T13:31:41.107Z,25.87
2022-09-13T13:34:35.641Z,26.03
2022-09-13T13:37:07.427Z,26.11
2022-09-13T13:39:42.212Z,26.04
2022-09-13T13:42:24.726Z,25.72
2022-09-13T13:45:16.974Z,25.57
2022-09-13T13:48:14.088Z,25.71
2022-09-13T13:51:15.537Z,25.62
2022-09-13T13:53:51.799Z,25.47
2022-09-13T13:56:32.691Z,25.12
2022-09-13T13:59:06.634Z,25.18
2022-09-13T14:01:38.234Z,25.37
2022-09-13T14:04:52.554Z,25.54
2022-09-13T14:07:36.984Z,25.61
2022-09-13T14:10:13.344Z,25.51
2022-09-13T14:12:57.699Z,25.23
2022-09-13T14:15:39.788Z,25.17
2022-09-13T14:18:51.286Z,25.22
2022-09-13T14:21:23.562Z,25.21
2022-09-13T14:23:53.674Z,25.26
2022-09-13T14:26:24.468Z,25.28
2022-09-13T14:28:53.515Z,25.22
2022-09-13T14:31:23.143Z,25.24
2022-09-13T14:33:52.990Z,25.27
2022-09-13T14:36:24.214Z,25.35
2022-09-13T14:38:55.639Z,25.14
2022-09-13T14:41:34.458Z,24.92
2022-09-13T14:44:23.712Z,24.87
2022-09-13T14:47:02.324Z,24.90
2022-09-13T14:49:34.878Z,24.97
2022-09-13T14:52:07.930Z,25.20
2022-09-13T14:54:39.763Z,25.19
2022-09-13T14:57:17.253Z,25.08
2022-09-13T14:59:50.349Z,24.78
2022-09-13T15:02:21.923Z,24.80
2022-09-13T15:04:53.121Z,24.76
2022-09-13T15:07:24.285Z,24.67
2022-09-13T15:09:57.383Z,24.55
2022-09-13T15:12:28.275Z,24.52
2022-09-13T15:15:26.227Z,24.26
2022-09-13T15:17:58.245Z,24.19
2022-09-13T15:20:28.070Z,24.17
2022-09-13T15:22:56.445Z,24.04
2022-09-13T15:25:27.642Z,23.98
2022-09-13T15:27:58.778Z,23.85
2022-09-13T15:30:29.550Z,23.72
2022-09-13T15:33:17.932Z,23.67
2022-09-13T15:35:48.499Z,23.64
2022-09-13T15:38:28.920Z,23.55
2022-09-13T15:41:03.640Z,23.56
2022-09-13T15:43:34.354Z,23.49
2022-09-13T15:46:03.069Z,23.39
2022-09-13T15:48:32.855Z,23.35
2022-09-13T15:51:10.909Z,23.27
2022-09-13T15:53:41.223Z,23.24
2022-09-13T15:56:14.491Z,23.14
2022-09-13T15:58:48.495Z,23.18
2022-09-13T16:01:18.609Z,23.11
2022-09-13T16:03:50.734Z,23.11
2022-09-13T16:06:24.433Z,23.08
2022-09-13T16:08:53.095Z,22.95
2022-09-13T16:11:22.726Z,22.93
2022-09-13T16:13:53.080Z,22.90
2022-09-13T16:16:22.870Z,22.88
2022-09-13T16:18:51.779Z,22.94
2022-09-13T16:21:21.034Z,22.90
2022-09-13T16:23:50.627Z,22.90
2022-09-13T16:26:20.404Z,22.84
2022-09-13T16:28:48.747Z,22.77
2022-09-13T16:31:20.395Z,22.72
2022-09-13T16:33:48.746Z,22.76
2022-09-13T16:36:18.668Z,22.79
2022-09-13T16:38:47.935Z,22.73
2022-09-13T16:41:16.649Z,22.68
2022-09-13T16:43:45.985Z,22.65
2022-09-13T16:46:14.961Z,22.65
2022-09-13T16:48:44.795Z,22.56
2022-09-13T16:51:14.089Z,22.70
2022-09-13T16:53:43.214Z,22.65
2022-09-13T16:56:13.211Z,22.60
2022-09-13T16:58:43.204Z,22.57
2022-09-13T17:01:13.249Z,22.56
2022-09-13T17:03:42.712Z,22.53
2022-09-13T17:06:13.933Z,22.53
2022-09-13T17:08:44.366Z,22.44
2022-09-13T17:11:15.878Z,22.43
2022-09-13T17:13:44.402Z,22.42
2022-09-13T17:16:23.307Z,22.39
2022-09-13T17:18:51.894Z,22.37
2022-09-13T17:21:21.909Z,22.38
2022-09-13T17:23:50.272Z,22.34
2022-09-13T17:26:18.443Z,22.30
2022-09-13T17:28:47.191Z,22.33
2022-09-13T17:31:15.995Z,22.29
2022-09-13T17:33:46.780Z,22.27
2022-09-13T17:36:15.962Z,22.25
2022-09-13T17:38:45.872Z,22.24
2022-09-13T17:41:15.478Z,22.21
2022-09-13T17:43:46.482Z,22.17
2022-09-13T17:46:16.270Z,22.11
2022-09-13T17:48:48.589Z,22.17
2022-09-13T17:51:19.665Z,22.12
2022-09-13T17:53:53.181Z,22.06
2022-09-13T17:56:22.956Z,21.99
2022-09-13T17:58:51.340Z,22.03
2022-09-13T18:01:20.003Z,22.03
2022-09-13T18:03:51.000Z,22.15
2022-09-13T18:06:19.513Z,22.08
2022-09-13T18:08:54.700Z,22.03
2022-09-13T18:11:23.709Z,22.01
2022-09-13T18:13:52.971Z,21.99
2022-09-13T18:16:23.120Z,21.98
2022-09-13T18:18:52.475Z,22.02
2022-09-13T18:21:22.632Z,21.97
2022-09-13T18:23:54.845Z,21.97
2022-09-13T18:26:24.978Z,22.00
2022-09-13T18:28:58.577Z,21.97
2022-09-13T18:31:27.727Z,21.99
2022-09-13T18:33:58.098Z,22.01
2022-09-13T18:36:28.022Z,21.95
2022-09-13T18:38:58.569Z,21.96
2022-09-13T18:41:28.884Z,21.91
2022-09-13T18:43:57.542Z,21.81
2022-09-13T18:46:27.800Z,21.82
2022-09-13T18:48:57.770Z,21.84
2022-09-13T18:51:28.331Z,21.84
2022-09-13T18:53:59.611Z,21.76
2022-09-13T18:56:29.032Z,21.73
2022-09-13T18:58:58.330Z,21.69
2022-09-13T19:01:28.999Z,21.64
2022-09-13T19:03:59.497Z,21.58
2022-09-13T19:06:30.854Z,21.48
2022-09-13T19:09:01.946Z,21.46
2022-09-13T19:11:46.422Z,21.41
2022-09-13T19:14:17.343Z,21.40
2022-09-13T19:16:47.196Z,21.29
2022-09-13T19:19:17.753Z,21.25
2022-09-13T19:21:49.215Z,21.21
2022-09-13T19:24:20.824Z,21.20
2022-09-13T19:26:52.214Z,21.15
2022-09-13T19:29:22.399Z,21.15
2022-09-13T19:31:52.965Z,21.01
2022-09-13T19:34:23.320Z,21.04
2022-09-13T19:36:58.181Z,21.04
2022-09-13T19:39:30.497Z,21.07
2022-09-13T19:42:00.852Z,20.86
2022-09-13T19:44:30.032Z,20.85
2022-09-13T19:47:45.067Z,20.91
2022-09-13T19:49:49.958Z,20.73
2022-09-13T19:52:18.823Z,20.70
2022-09-13T19:54:52.203Z,20.80
2022-09-13T19:57:21.138Z,20.68
2022-09-13T19:59:49.750Z,20.62
2022-09-13T20:02:18.355Z,20.62
2022-09-13T20:04:49.746Z,20.57
2022-09-13T20:07:18.313Z,20.45
2022-09-13T20:09:53.959Z,20.48
2022-09-13T20:12:23.913Z,20.43
2022-09-13T20:14:52.547Z,20.48
2022-09-13T20:17:21.859Z,20.48
2022-09-13T20:19:51.792Z,20.65
2022-09-13T20:22:20.355Z,20.44
2022-09-13T20:24:50.253Z,20.52
2022-09-13T20:27:19.027Z,20.38
2022-09-13T20:29:49.241Z,20.45
2022-09-13T20:32:18.072Z,20.35
2022-09-13T20:34:48.975Z,20.40
2022-09-13T20:37:17.658Z,20.33
2022-09-13T20:39:46.570Z,20.31
2022-09-13T20:42:17.389Z,20.36
2022-09-13T20:44:46.421Z,20.22
2022-09-13T20:47:15.304Z,20.22
2022-09-13T20:49:43.630Z,20.27
2022-09-13T20:52:14.753Z,20.40
2022-09-13T20:54:43.283Z,20.26
2022-09-13T20:57:11.591Z,20.24
2022-09-13T20:59:41.326Z,20.35
2022-09-13T21:02:10.747Z,20.32
2022-09-13T21:04:39.035Z,20.34
2022-09-13T21:07:24.993Z,20.30
2022-09-13T21:09:53.207Z,20.27
2022-09-13T21:12:21.535Z,20.34
2022-09-13T21:14:52.716Z,20.27
2022-09-13T21:17:21.303Z,20.20
2022-09-13T21:19:50.218Z,20.27
2022-09-13T21:22:18.439Z,20.27
2022-09-13T21:24:47.485Z,20.31
2022-09-13T21:27:15.681Z,20.32
2022-09-13T21:29:43.880Z,20.36
2022-09-13T21:32:13.903Z,20.41
2022-09-13T21:34:46.328Z,20.29
2022-09-13T21:37:14.540Z,20.31
2022-09-13T21:39:42.890Z,20.34
2022-09-13T21:42:11.177Z,20.19
2022-09-13T21:44:39.820Z,20.07
2022-09-13T21:47:08.085Z,20.05
2022-09-13T21:49:37.889Z,19.99
2022-09-13T21:52:08.157Z,19.88
2022-09-13T21:54:37.250Z,19.95
2022-09-13T21:57:06.390Z,19.95
2022-09-13T21:59:35.295Z,20.01
2022-09-13T22:02:05.322Z,20.08
2022-09-13T22:04:34.658Z,20.06
2022-09-13T22:07:05.711Z,19.99
2022-09-13T22:09:34.574Z,19.97
2022-09-13T22:12:04.266Z,19.90
2022-09-13T22:14:33.298Z,19.96
2022-09-13T22:17:02.834Z,19.92
2022-09-13T22:19:31.853Z,19.86
2022-09-13T22:22:01.401Z,19.80
2022-09-13T22:24:32.819Z,19.80
2022-09-13T22:27:02.733Z,19.84
2022-09-13T22:29:31.353Z,19.81
2022-09-13T22:32:00.874Z,19.88
2022-09-13T22:34:31.025Z,19.78
2022-09-13T22:37:00.545Z,19.81
2022-09-13T22:39:29.136Z,19.89
2022-09-13T22:41:59.698Z,19.71
2022-09-13T22:44:28.295Z,19.69
2022-09-13T22:47:00.433Z,19.74
2022-09-13T22:49:29.268Z,19.54
2022-09-13T22:51:58.249Z,19.45
2022-09-13T22:54:28.603Z,19.51
2022-09-13T22:56:56.870Z,19.34
2022-09-13T22:59:26.558Z,19.38
2022-09-13T23:01:54.621Z,19.35
2022-09-13T23:04:23.150Z,19.36
2022-09-13T23:06:51.292Z,19.26
2022-09-13T23:09:19.999Z,19.24
2022-09-13T23:11:48.914Z,19.43
2022-09-13T23:14:19.963Z,19.40
2022-09-13T23:16:51.824Z,19.30
2022-09-13T23:19:22.599Z,19.26
2022-09-13T23:21:50.736Z,19.24
2022-09-13T23:24:19.945Z,19.32
2022-09-13T23:26:48.292Z,19.21
2022-09-13T23:29:17.842Z,19.21
2022-09-13T23:31:47.145Z,19.25
2022-09-13T23:34:17.810Z,19.15
2022-09-13T23:36:46.510Z,19.20
2022-09-13T23:39:17.661Z,19.22
2022-09-13T23:41:46.452Z,19.34
2022-09-13T23:44:14.947Z,19.21
2022-09-13T23:46:43.152Z,19.22
2022-09-13T23:49:11.637Z,19.34
2022-09-13T23:51:41.599Z,19.36
2022-09-13T23:54:10.162Z,19.35
2022-09-13T23:56:38.516Z,19.26
2022-09-13T23:59:07.099Z,19.24
